Time;durP1;ratioP1;P1;durP2;ratioP2;P2;SDS_P1;SDS_P2;PMS_P1;PMS_P2;Temp;Humidity;BMP_temperature;BMP_pressure;BME280_temperature;BME280_humidity;BME280_pressure;Samples;Min_cycle;Max_cycle;Signal;HPM_P1;HPM_P2
2022/03/22 00:01:39;;;;;;;52.58;19.58;;;;;;;3.45;43.22;101377.47;8461176;28;20054;-73
2022/03/22 00:05:42;;;;;;;49.70;20.75;;;;;;;3.37;43.28;101369.69;8462070;28;20398;-73
2022/03/22 00:09:43;;;;;;;54.97;19.88;;;;;;;3.31;43.23;101381.19;8461346;28;20075;-73
2022/03/22 00:13:44;;;;;;;52.53;20.65;;;;;;;3.27;43.44;101385.28;8461018;28;20079;-73
2022/03/22 00:17:46;;;;;;;48.22;18.85;;;;;;;3.25;43.45;101384.66;8442360;28;20047;-73
2022/03/22 00:21:46;;;;;;;50.13;20.70;;;;;;;3.22;43.25;101382.41;8425058;28;20048;-73
2022/03/22 00:25:48;;;;;;;53.75;20.35;;;;;;;3.22;43.43;101387.75;8461043;28;20100;-74
2022/03/22 00:29:48;;;;;;;52.90;19.38;;;;;;;3.19;43.57;101388.16;8460111;28;20048;-73
2022/03/22 00:33:50;;;;;;;58.38;20.50;;;;;;;3.12;43.70;101387.34;8436310;28;20132;-73
2022/03/22 00:37:53;;;;;;;50.15;20.13;;;;;;;3.10;43.71;101378.72;8460811;28;20180;-73
2022/03/22 00:41:54;;;;;;;49.95;19.80;;;;;;;3.07;43.97;101379.13;8460520;28;20044;-73
2022/03/22 00:45:55;;;;;;;53.35;20.45;;;;;;;3.07;43.79;101379.13;8460338;28;20554;-73
2022/03/22 00:49:56;;;;;;;49.72;20.60;;;;;;;3.03;43.68;101377.88;8407568;28;20502;-73
2022/03/22 00:54:02;;;;;;;54.88;21.35;;;;;;;3.01;43.90;101374.59;8448322;28;20051;-73
2022/03/22 00:58:03;;;;;;;52.95;21.13;;;;;;;2.97;44.06;101375.00;8459686;28;20425;-73
2022/03/22 01:02:04;;;;;;;55.53;21.65;;;;;;;2.96;44.74;101368.00;8459439;28;20086;-73
2022/03/22 01:06:06;;;;;;;53.83;23.23;;;;;;;2.98;44.49;101371.31;8460091;28;20196;-73
2022/03/22 01:10:09;;;;;;;55.83;22.88;;;;;;;3.01;45.02;101358.59;8459732;28;20114;-73
2022/03/22 01:14:11;;;;;;;58.03;22.60;;;;;;;3.06;44.51;101366.81;8458468;28;20074;-73
2022/03/22 01:18:13;;;;;;;51.20;21.08;;;;;;;3.06;44.58;101356.13;8458744;28;20047;-73
2022/03/22 01:22:15;;;;;;;49.10;21.77;;;;;;;3.17;44.56;101358.19;8459663;28;20052;-74
2022/03/22 01:26:16;;;;;;;60.97;23.48;;;;;;;3.19;44.63;101361.44;8423418;28;20418;-74
2022/03/22 01:30:21;;;;;;;49.67;21.27;;;;;;;3.23;44.25;101352.00;8456647;28;20325;-73
2022/03/22 01:34:22;;;;;;;58.13;21.33;;;;;;;3.27;44.33;101342.56;8459643;28;20048;-73
2022/03/22 01:38:23;;;;;;;63.75;21.70;;;;;;;3.36;43.83;101341.31;8459289;28;20048;-73
2022/03/22 01:42:24;;;;;;;53.90;21.30;;;;;;;3.46;43.62;101340.88;8438485;28;20392;-73
2022/03/22 01:46:27;;;;;;;49.40;21.58;;;;;;;3.49;43.28;101341.28;8423553;28;20039;-72
2022/03/22 01:50:29;;;;;;;54.67;20.90;;;;;;;3.48;43.27;101328.97;8460122;28;20051;-73
2022/03/22 01:54:30;;;;;;;47.50;20.92;;;;;;;3.55;43.12;101334.28;8459026;28;20052;-73
2022/03/22 01:58:31;;;;;;;53.10;20.75;;;;;;;3.51;43.13;101323.22;8459595;28;20058;-73
2022/03/22 02:06:52;;;;;;;;;;;;;;;3.42;43.20;101300.44;8459946;28;20058;-73
2022/03/22 02:10:54;;;;;;;50.28;19.90;;;;;;;3.44;43.20;101310.91;8422656;28;19924;-73
2022/03/22 02:14:55;;;;;;;57.03;20.75;;;;;;;3.43;43.41;101299.41;8458832;28;20556;-73
2022/03/22 02:18:56;;;;;;;54.22;22.13;;;;;;;3.40;43.30;101299.81;8458455;28;20047;-73
2022/03/22 02:23:12;;;;;;;54.17;20.50;;;;;;;3.41;43.16;101298.78;8458353;28;20040;-73
2022/03/22 02:27:13;;;;;;;57.95;22.08;;;;;;;3.50;43.02;101299.38;8457903;28;20039;-73
2022/03/22 02:31:14;;;;;;;56.63;20.33;;;;;;;3.53;42.84;101299.78;8458510;28;20089;-73
2022/03/22 02:35:15;;;;;;;61.50;22.13;;;;;;;3.58;42.61;101297.31;8457891;28;20122;-73
2022/03/22 02:39:16;;;;;;;57.80;22.73;;;;;;;3.60;42.55;101289.88;8464054;28;20121;-73
2022/03/22 02:43:17;;;;;;;60.55;23.77;;;;;;;3.64;42.54;101291.13;8463886;28;20059;-73
2022/03/22 02:47:18;;;;;;;58.72;23.30;;;;;;;3.63;42.25;101292.16;8464271;28;20059;-73
2022/03/22 02:51:19;;;;;;;61.80;24.35;;;;;;;3.67;42.35;101296.03;8463775;28;20058;-73
2022/03/22 02:55:21;;;;;;;55.58;22.77;;;;;;;3.70;42.12;101300.97;8463940;28;20558;-73
2022/03/22 02:59:22;;;;;;;62.38;23.77;;;;;;;3.75;41.87;101292.34;8464274;28;20051;-72
2022/03/22 03:03:22;;;;;;;57.20;23.42;;;;;;;3.73;42.17;101305.91;8462868;28;20039;-73
2022/03/22 03:07:23;;;;;;;64.43;23.63;;;;;;;3.64;42.48;101301.81;8463852;28;20051;-73
2022/03/22 03:11:26;;;;;;;61.50;23.48;;;;;;;3.60;42.56;101297.91;8444015;28;20524;-73
2022/03/22 03:15:27;;;;;;;66.85;25.20;;;;;;;3.58;42.67;101308.00;8463496;28;20054;-73
2022/03/22 03:19:28;;;;;;;64.20;26.45;;;;;;;3.55;42.84;101308.41;8462970;28;20043;-73
2022/03/22 03:23:29;;;;;;;72.22;25.23;;;;;;;3.53;42.78;101305.13;8462721;28;20404;-72
2022/03/22 03:27:30;;;;;;;69.38;26.65;;;;;;;3.53;42.83;101309.66;8463104;28;20040;-73
2022/03/22 03:31:31;;;;;;;70.47;26.85;;;;;;;3.49;42.83;101303.88;8462384;28;20124;-73
2022/03/22 03:35:32;;;;;;;75.20;27.98;;;;;;;3.44;42.99;101306.38;8443409;28;20443;-72
2022/03/22 03:39:33;;;;;;;66.10;26.50;;;;;;;3.40;43.34;101311.31;8462221;27;20043;-73
2022/03/22 03:43:34;;;;;;;64.88;26.00;;;;;;;3.39;43.08;101306.16;8462287;27;20044;-72
2022/03/22 03:47:35;;;;;;;64.53;26.33;;;;;;;3.36;43.57;101309.28;8461790;28;20062;-73
2022/03/22 03:51:36;;;;;;;68.35;26.08;;;;;;;3.27;43.61;101306.00;8441716;28;20513;-73
2022/03/22 03:55:37;;;;;;;74.03;26.67;;;;;;;3.22;43.84;101318.34;8461522;28;20048;-73
2022/03/22 03:59:38;;;;;;;64.50;25.30;;;;;;;3.19;43.88;101313.38;8461871;28;20047;-73
2022/03/22 04:03:39;;;;;;;78.13;27.85;;;;;;;3.09;44.10;101312.97;8461567;28;20040;-73
2022/03/22 04:07:40;;;;;;;67.60;26.83;;;;;;;3.04;44.03;101320.78;8462187;28;20123;-73
2022/03/22 04:11:42;;;;;;;70.63;27.27;;;;;;;2.99;44.20;101313.41;8461422;28;20044;-73
2022/03/22 04:15:43;;;;;;;76.95;27.25;;;;;;;2.95;44.54;101317.50;8461302;28;20064;-73
2022/03/22 04:19:45;;;;;;;63.00;26.38;;;;;;;2.89;44.77;101324.50;8461637;28;20048;-72
2022/03/22 04:23:46;;;;;;;71.65;27.40;;;;;;;2.76;45.13;101324.47;8460856;28;20067;-73
2022/03/22 04:36:28;;;;;;;75.25;27.27;;;;;;;2.52;45.86;101338.38;8460594;28;20040;-73
2022/03/22 04:40:29;;;;;;;72.25;28.90;;;;;;;2.43;46.24;101334.28;8441047;28;20039;-73
2022/03/22 04:44:30;;;;;;;76.38;28.90;;;;;;;2.37;46.38;101329.72;8459677;28;20279;-74
2022/03/22 04:48:31;;;;;;;78.55;29.60;;;;;;;2.37;46.62;101340.41;8459923;28;20126;-73
2022/03/22 04:56:54;;;;;;;86.15;30.63;;;;;;;2.35;46.80;101347.78;8460519;28;20055;-73
2022/03/22 05:00:55;;;;;;;84.22;32.58;;;;;;;2.31;47.19;101346.53;8405693;28;20180;-73
2022/03/22 05:04:56;;;;;;;88.80;29.98;;;;;;;2.29;47.67;101348.56;8427099;28;20051;-73
2022/03/22 05:08:57;;;;;;;83.22;30.10;;;;;;;2.30;47.64;101350.22;8427074;28;20474;-73
2022/03/22 05:12:58;;;;;;;77.95;31.35;;;;;;;2.30;47.89;101355.53;8426344;28;20119;-73
2022/03/22 05:16:59;;;;;;;86.70;30.02;;;;;;;2.27;47.90;101345.28;8426193;28;20056;-72
2022/03/22 05:21:02;;;;;;;79.70;28.77;;;;;;;2.28;47.88;101346.91;8425320;28;20413;-72
2022/03/22 05:25:03;;;;;;;79.97;29.50;;;;;;;2.28;48.04;101346.91;8426210;28;20337;-73
2022/03/22 05:29:04;;;;;;;76.00;29.63;;;;;;;2.29;48.64;101348.56;8409302;28;20123;-73
2022/03/22 05:33:05;;;;;;;83.60;31.85;;;;;;;2.32;48.56;101342.84;8413151;28;20504;-74
2022/03/22 05:37:06;;;;;;;84.05;30.42;;;;;;;2.35;48.42;101356.59;8425859;28;20055;-75
2022/03/22 05:41:08;;;;;;;148.55;50.22;;;;;;;2.39;48.63;101349.00;8425649;28;20041;-75
2022/03/22 05:45:11;;;;;;;111.45;39.28;;;;;;;2.44;48.53;101357.22;8425373;28;20458;-72
2022/03/22 05:49:13;;;;;;;90.10;32.08;;;;;;;2.50;48.67;101345.75;8423298;28;20044;-72
2022/03/22 05:53:14;;;;;;;91.18;33.20;;;;;;;2.53;48.45;101350.72;8402692;28;20045;-72
2022/03/22 05:57:16;;;;;;;82.82;30.88;;;;;;;2.58;48.51;101353.59;8424533;28;20048;-72
2022/03/22 06:01:17;;;;;;;91.35;32.53;;;;;;;2.64;48.25;101347.44;8448802;28;20078;-72
2022/03/22 06:05:18;;;;;;;85.45;33.72;;;;;;;2.72;48.46;101349.91;8438365;28;20421;-71
2022/03/22 06:09:18;;;;;;;83.65;33.80;;;;;;;2.77;48.68;101358.13;8457694;28;20116;-72
2022/03/22 06:13:19;;;;;;;94.15;35.65;;;;;;;2.85;48.60;101354.47;8443942;28;20130;-72
2022/03/22 06:17:20;;;;;;;91.63;35.30;;;;;;;2.93;48.34;101357.75;8463348;27;20120;-71
2022/03/22 06:21:22;;;;;;;102.22;34.83;;;;;;;3.03;48.39;101353.84;8463631;28;20038;-72
2022/03/22 06:25:23;;;;;;;93.85;35.40;;;;;;;3.15;48.48;101365.56;8463952;28;20059;-72
2022/03/22 06:29:25;;;;;;;94.13;34.92;;;;;;;3.27;48.13;101358.59;8443020;28;20036;-71
2022/03/22 06:33:26;;;;;;;100.70;36.72;;;;;;;3.34;48.06;101359.38;8436846;28;20409;-72
2022/03/22 06:37:27;;;;;;;90.72;36.17;;;;;;;3.44;48.04;101365.13;8464206;27;20047;-73
2022/03/22 06:41:28;;;;;;;103.57;35.78;;;;;;;3.52;47.54;101367.59;8464122;28;20386;-73
2022/03/22 06:45:29;;;;;;;97.53;37.88;;;;;;;3.64;47.40;101376.63;8463313;28;20432;-72
2022/03/22 06:49:30;;;;;;;108.80;40.53;;;;;;;3.72;47.51;101363.03;8460319;28;20027;-73
2022/03/22 06:53:31;;;;;;;108.47;41.38;;;;;;;3.81;47.14;101371.66;8463405;28;20568;-73
2022/03/22 06:57:33;;;;;;;109.13;41.63;;;;;;;3.89;47.43;101373.28;8463857;28;20039;-73
2022/03/22 07:01:34;;;;;;;106.35;41.25;;;;;;;3.98;47.08;101366.69;8427877;28;20050;-73
2022/03/22 07:05:35;;;;;;;111.60;41.95;;;;;;;4.12;47.04;101373.66;8435473;28;20140;-74
2022/03/22 07:09:36;;;;;;;105.25;41.58;;;;;;;4.23;46.97;101375.63;8440373;28;20051;-74
2022/03/22 07:13:38;;;;;;;106.22;39.47;;;;;;;4.37;47.05;101377.25;8464353;28;20413;-73
2022/03/22 07:17:40;;;;;;;106.95;41.95;;;;;;;4.49;46.70;101370.19;8463805;28;20043;-74
2022/03/22 07:21:42;;;;;;;105.57;40.40;;;;;;;4.60;46.90;101376.72;8461363;28;20043;-74
2022/03/22 07:25:43;;;;;;;106.75;41.75;;;;;;;4.74;46.88;101378.28;8427159;28;20047;-75
2022/03/22 07:29:44;;;;;;;118.75;43.15;;;;;;;4.95;46.70;101377.13;8463742;27;20180;-74
2022/03/22 07:33:45;;;;;;;117.57;45.38;;;;;;;5.10;46.46;101382.97;8463435;28;20062;-74
2022/03/22 07:37:46;;;;;;;110.22;44.45;;;;;;;5.25;46.45;101380.78;8463201;28;20489;-74
2022/03/22 07:41:47;;;;;;;118.38;45.70;;;;;;;5.38;46.36;101386.06;8426842;28;20055;-73
2022/03/22 07:45:49;;;;;;;118.47;45.60;;;;;;;5.51;46.17;101388.59;8462945;28;20044;-73
2022/03/22 07:54:10;;;;;;;114.90;46.40;;;;;;;5.90;45.85;101389.31;8443419;28;20054;-74
2022/03/22 07:58:11;;;;;;;114.78;45.22;;;;;;;6.04;45.73;101396.16;8462414;28;20138;-74
2022/03/22 08:02:12;;;;;;;135.75;47.80;;;;;;;6.19;45.21;101393.91;8462243;28;20130;-73
2022/03/22 08:06:14;;;;;;;129.73;47.95;;;;;;;6.36;45.32;101389.59;8462261;28;20058;-75
2022/03/22 08:10:14;;;;;;;123.53;46.47;;;;;;;6.53;44.69;101394.34;8442842;28;20067;-74
2022/03/22 08:14:16;;;;;;;127.65;46.70;;;;;;;6.64;44.87;101390.91;8459753;28;20063;-75
2022/03/22 08:18:17;;;;;;;187.35;50.40;;;;;;;6.81;44.76;101391.91;8462172;28;20505;-74
2022/03/22 08:22:18;;;;;;;124.57;48.28;;;;;;;7.05;44.12;101388.22;8442403;28;20058;-74
2022/03/22 08:26:19;;;;;;;124.97;45.58;;;;;;;7.28;44.07;101386.63;8461639;28;20048;-73
2022/03/22 08:30:21;;;;;;;127.13;45.67;;;;;;;7.46;43.63;101389.22;8459174;28;20537;-74
2022/03/22 08:34:22;;;;;;;119.55;46.75;;;;;;;7.68;43.46;101379.53;8461555;28;20487;-74
2022/03/22 08:38:24;;;;;;;117.22;45.55;;;;;;;7.85;43.04;101372.41;8442228;28;20457;-74
2022/03/22 08:42:26;;;;;;;105.80;42.80;;;;;;;8.04;42.79;101381.94;8459859;28;20043;-74
2022/03/22 08:46:27;;;;;;;103.85;42.40;;;;;;;8.17;42.42;101385.44;8461414;28;20048;-74
2022/03/22 08:50:28;;;;;;;106.25;43.00;;;;;;;8.41;41.63;101381.66;8441894;28;20079;-74
2022/03/22 08:54:30;;;;;;;102.93;40.65;;;;;;;8.54;41.74;101376.00;8460820;28;20486;-75
2022/03/22 08:58:31;;;;;;;92.03;39.30;;;;;;;8.70;41.66;101380.63;8460547;28;20048;-74
2022/03/22 09:02:32;;;;;;;91.78;37.92;;;;;;;8.94;40.92;101375.09;8460647;28;20039;-74
2022/03/22 09:06:32;;;;;;;91.72;38.05;;;;;;;9.12;40.87;101369.50;8460698;28;20130;-74
2022/03/22 09:10:36;;;;;;;93.25;39.55;;;;;;;9.32;40.62;101372.53;8460275;28;20493;-74
2022/03/22 09:14:37;;;;;;;93.82;40.90;;;;;;;9.43;41.12;101368.94;8460371;28;20134;-74
2022/03/22 09:18:38;;;;;;;95.70;40.22;;;;;;;9.55;40.82;101361.56;8476264;27;20485;-74
2022/03/22 09:22:42;;;;;;;97.97;38.15;;;;;;;9.79;40.08;101366.75;8460057;28;20046;-74
2022/03/22 09:26:43;;;;;;;93.32;39.05;;;;;;;9.90;40.13;101357.72;8460041;28;20056;-74
2022/03/22 09:30:48;;;;;;;85.82;35.95;;;;;;;10.11;38.67;101354.22;8459018;28;20123;-74
2022/03/22 09:34:49;;;;;;;111.78;36.63;;;;;;;10.33;38.59;101352.38;8459834;28;20125;-74
2022/03/22 09:38:50;;;;;;;74.72;35.05;;;;;;;10.48;38.77;101354.44;8458629;28;20410;-74
2022/03/22 09:42:51;;;;;;;83.75;37.25;;;;;;;10.64;38.83;101358.13;8423969;28;20529;-74
2022/03/22 09:46:52;;;;;;;70.90;34.63;;;;;;;10.94;37.65;101353.81;8464212;28;20115;-74
2022/03/22 09:55:16;;;;;;;83.53;35.63;;;;;;;11.25;37.11;101349.50;8450445;28;20059;-74
2022/03/22 09:59:17;;;;;;;82.20;36.30;;;;;;;11.53;36.90;101350.22;8466314;28;20083;-74
2022/03/22 10:03:20;;;;;;;79.80;34.67;;;;;;;11.65;35.91;101338.16;8466423;28;20506;-73
2022/03/22 10:07:23;;;;;;;71.43;32.47;;;;;;;11.66;36.28;101338.97;8466326;28;20051;-74
2022/03/22 10:11:44;;;;;;;87.20;35.00;;;;;;;11.88;35.81;101336.97;8429866;28;20528;-75
2022/03/22 10:15:46;;;;;;;79.30;35.53;;;;;;;12.05;36.25;101342.19;8466154;28;20043;-74
2022/03/22 10:19:49;;;;;;;82.65;36.15;;;;;;;12.26;35.25;101339.31;8466160;28;20055;-74
2022/03/22 10:23:52;;;;;;;75.45;36.03;;;;;;;12.44;35.03;101345.28;8465541;28;20048;-75
2022/03/22 10:27:57;;;;;;;77.65;33.60;;;;;;;12.49;34.73;101348.03;8465531;28;20103;-74
2022/03/22 10:32:03;;;;;;;92.18;34.90;;;;;;;12.61;35.52;101341.28;8465701;28;20046;-75
2022/03/22 10:36:13;;;;;;;79.72;33.75;;;;;;;12.72;34.95;101339.41;8465948;28;20462;-74
2022/03/22 10:40:22;;;;;;;76.03;32.85;;;;;;;12.89;33.77;101348.13;8465635;28;20051;-74
2022/03/22 10:44:23;;;;;;;78.00;33.85;;;;;;;13.00;34.36;101332.66;8465327;28;20052;-74
2022/03/22 10:48:27;;;;;;;72.18;32.00;;;;;;;13.23;34.30;101325.91;8464929;28;20062;-74
2022/03/22 10:52:29;;;;;;;68.15;32.25;;;;;;;13.51;33.43;101333.47;8464821;28;20051;-75
2022/03/22 10:56:32;;;;;;;94.30;34.05;;;;;;;13.48;33.55;101334.03;8463495;28;20474;-74
2022/03/22 11:00:33;;;;;;;70.60;33.65;;;;;;;13.74;33.25;101322.03;8464391;28;20062;-74
2022/03/22 11:04:34;;;;;;;72.88;32.42;;;;;;;13.77;33.34;101309.78;8463228;28;20054;-75
2022/03/22 11:08:35;;;;;;;54.15;25.80;;;;;;;13.91;32.34;101324.41;8463275;28;20071;-75
2022/03/22 11:12:37;;;;;;;55.97;26.67;;;;;;;14.13;30.65;101307.75;8464470;28;20056;-76
2022/03/22 11:16:38;;;;;;;54.88;27.42;;;;;;;14.23;30.38;101313.13;8463595;28;20481;-75
2022/03/22 11:20:50;;;;;;;66.63;28.90;;;;;;;14.25;29.80;101305.53;8463149;28;20048;-75
2022/03/22 11:24:51;;;;;;;63.60;28.95;;;;;;;14.44;30.84;101309.25;8445309;28;20093;-75
2022/03/22 11:28:53;;;;;;;64.03;27.60;;;;;;;14.49;29.41;101295.63;8463915;28;20058;-75
2022/03/22 11:37:28;;;;;;;70.22;32.03;;;;;;;14.87;30.00;101285.03;8463775;28;20474;-75
2022/03/22 11:46:02;;;;;;;64.32;30.90;;;;;;;15.02;28.93;101282.16;8463016;28;21205;-76
2022/03/22 11:50:06;;;;;;;61.58;28.50;;;;;;;15.12;29.26;101276.66;8462029;28;20356;-76
2022/03/22 11:54:08;;;;;;;92.15;39.22;;;;;;;15.22;29.41;101260.25;8462859;28;20055;-75
2022/03/22 11:58:09;;;;;;;50.38;24.27;;;;;;;15.54;28.62;101257.75;8461201;28;20043;-76
2022/03/22 12:02:13;;;;;;;43.72;21.90;;;;;;;15.66;26.83;101251.88;8462464;28;20375;-75
2022/03/22 12:06:13;;;;;;;50.55;24.10;;;;;;;15.86;27.37;101253.56;8442937;28;20055;-75
2022/03/22 12:10:16;;;;;;;54.13;26.00;;;;;;;15.90;26.91;101249.13;8462490;28;20047;-74
2022/03/22 12:14:28;;;;;;;51.17;23.65;;;;;;;15.91;26.78;101239.88;8462405;27;20748;-75
2022/03/22 12:18:31;;;;;;;52.00;23.42;;;;;;;15.94;27.23;101234.63;8461939;28;20082;-74
2022/03/22 12:22:32;;;;;;;49.53;24.67;;;;;;;16.10;27.02;101237.97;8461830;27;20051;-74
2022/03/22 12:26:33;;;;;;;46.08;22.98;;;;;;;16.17;27.21;101237.59;8461979;28;20035;-75
2022/03/22 12:30:36;;;;;;;51.70;23.33;;;;;;;16.18;26.40;101234.56;8461671;28;20066;-75
2022/03/22 12:34:37;;;;;;;48.65;22.20;;;;;;;16.30;26.03;101229.50;8461432;28;20047;-74
2022/03/22 12:38:40;;;;;;;42.20;20.05;;;;;;;16.44;26.06;101222.19;8461421;28;20051;-75
2022/03/22 12:42:42;;;;;;;41.55;19.77;;;;;;;16.55;25.65;101222.03;8460144;28;20429;-75
2022/03/22 12:46:43;;;;;;;42.58;19.92;;;;;;;16.63;25.20;101229.56;8461289;28;20043;-75
2022/03/22 12:50:44;;;;;;;38.80;19.58;;;;;;;16.62;25.28;101217.03;8441845;28;20044;-75
2022/03/22 12:54:45;;;;;;;45.38;22.60;;;;;;;16.62;25.68;101211.56;8424841;28;20428;-74
2022/03/22 12:58:49;;;;;;;44.15;22.35;;;;;;;16.66;24.71;101207.13;8461001;28;20483;-75
2022/03/22 13:02:49;;;;;;;45.03;22.98;;;;;;;16.75;24.88;101205.38;8441417;28;20043;-75
2022/03/22 13:07:01;;;;;;;40.83;20.23;;;;;;;16.90;25.33;101207.84;8460452;28;20047;-75
2022/03/22 13:15:21;;;;;;;38.90;19.23;;;;;;;16.96;25.06;101201.19;8459802;28;20122;-75
2022/03/22 13:19:23;;;;;;;43.55;19.75;;;;;;;17.05;25.36;101193.91;8458418;28;20040;-74
2022/03/22 13:23:24;;;;;;;39.03;18.83;;;;;;;17.13;24.94;101190.47;8459001;28;20055;-75
2022/03/22 13:27:25;;;;;;;39.38;19.60;;;;;;;17.94;24.48;101193.50;8459990;28;20100;-75
2022/03/22 13:31:26;;;;;;;40.67;19.35;;;;;;;19.03;23.57;101186.75;8459994;28;20485;-74
2022/03/22 13:35:27;;;;;;;43.47;19.30;;;;;;;20.14;21.78;101178.06;8457783;28;20116;-74
2022/03/22 13:39:28;;;;;;;37.60;18.95;;;;;;;20.17;20.60;101177.41;8440784;28;20054;-75
2022/03/22 13:43:42;;;;;;;36.88;19.40;;;;;;;21.00;20.58;101173.25;8460217;28;20043;-75
2022/03/22 13:47:44;;;;;;;38.72;19.33;;;;;;;22.04;19.85;101162.56;8459785;28;20051;-75
2022/03/22 13:51:45;;;;;;;36.15;20.10;;;;;;;22.42;19.07;101161.56;8440558;28;20108;-75
2022/03/22 13:55:54;;;;;;;38.53;18.95;;;;;;;22.93;19.11;101161.06;8459785;28;20108;-75
2022/03/22 13:59:59;;;;;;;44.72;19.33;;;;;;;23.95;18.24;101169.06;8458012;28;20059;-74
2022/03/22 14:04:00;;;;;;;34.67;18.25;;;;;;;23.43;17.63;101157.16;8459670;28;20040;-75
2022/03/22 14:08:02;;;;;;;31.10;17.52;;;;;;;23.33;17.61;101152.91;8459583;28;20039;-75
2022/03/22 14:12:04;;;;;;;32.63;18.85;;;;;;;24.24;17.31;101147.84;8440300;28;20050;-75
2022/03/22 14:16:05;;;;;;;39.13;18.45;;;;;;;23.81;17.16;101146.56;8459843;28;20040;-75
2022/03/22 14:20:07;;;;;;;37.40;20.13;;;;;;;25.11;16.99;101142.31;8441440;28;20240;-76
2022/03/22 14:24:08;;;;;;;29.05;17.98;;;;;;;24.38;16.87;101142.72;8423301;28;20052;-75
2022/03/22 14:28:09;;;;;;;31.60;16.52;;;;;;;24.75;16.58;101135.84;8459115;28;20048;-75
2022/03/22 14:32:11;;;;;;;33.63;18.20;;;;;;;25.71;15.91;101132.69;8460953;28;20129;-75
2022/03/22 14:36:12;;;;;;;30.40;16.27;;;;;;;25.14;15.75;101119.47;8465280;28;20054;-74
2022/03/22 14:40:13;;;;;;;26.05;14.88;;;;;;;24.44;15.80;101119.22;8465303;28;20039;-75
2022/03/22 14:44:14;;;;;;;28.20;14.77;;;;;;;24.71;15.68;101117.56;8464955;28;20035;-75
2022/03/22 14:48:19;;;;;;;24.90;14.43;;;;;;;25.15;15.35;101121.09;8464955;28;20117;-75
2022/03/22 15:00:59;;;;;;;24.83;15.45;;;;;;;25.98;15.06;101108.72;8464407;28;20044;-75
2022/03/22 15:05:00;;;;;;;28.30;14.77;;;;;;;25.74;14.86;101092.44;8464662;28;20066;-75
2022/03/22 15:09:03;;;;;;;25.90;14.45;;;;;;;25.24;15.18;101096.81;8445216;28;20474;-75
2022/03/22 15:13:04;;;;;;;42.40;20.88;;;;;;;24.27;15.61;101086.44;8445098;28;20054;-75
2022/03/22 15:17:05;;;;;;;41.85;23.70;;;;;;;23.98;15.79;101091.09;8464236;28;20486;-75
2022/03/22 15:21:08;;;;;;;29.40;17.42;;;;;;;25.63;15.44;101081.94;8464030;28;20071;-75
2022/03/22 15:25:09;;;;;;;23.60;14.85;;;;;;;25.06;15.14;101084.53;8463827;28;20105;-76
2022/03/22 15:29:11;;;;;;;21.33;13.30;;;;;;;24.41;15.82;101075.75;8444188;28;20126;-76
2022/03/22 15:33:13;;;;;;;20.92;13.18;;;;;;;22.89;17.15;101077.47;8463432;28;20051;-75
2022/03/22 15:37:14;;;;;;;24.63;13.27;;;;;;;21.04;18.24;101071.78;8444237;28;20058;-75
2022/03/22 15:41:15;;;;;;;27.52;14.75;;;;;;;21.10;18.56;101067.69;8461022;28;20055;-75
2022/03/22 15:45:16;;;;;;;27.48;15.15;;;;;;;21.11;18.45;101069.31;8461108;28;20127;-76
2022/03/22 15:49:17;;;;;;;23.63;14.73;;;;;;;20.01;19.26;101074.78;8463322;28;20039;-75
2022/03/22 15:53:20;;;;;;;27.40;13.77;;;;;;;18.87;20.02;101060.44;8462809;28;20074;-75
2022/03/22 15:57:23;;;;;;;23.17;12.90;;;;;;;18.20;21.06;101070.66;8460874;28;20036;-75
2022/03/22 16:01:24;;;;;;;27.42;14.35;;;;;;;17.74;21.39;101063.59;8457953;28;20060;-75
2022/03/22 16:05:25;;;;;;;29.50;15.07;;;;;;;17.40;21.77;101068.69;8461370;28;20048;-75
2022/03/22 16:09:28;;;;;;;26.83;14.20;;;;;;;17.16;22.46;101064.28;8462222;28;20051;-75
2022/03/22 16:13:29;;;;;;;30.33;14.45;;;;;;;16.87;22.86;101056.41;8442345;28;20398;-75
2022/03/22 16:17:29;;;;;;;30.67;14.82;;;;;;;16.81;23.11;101054.09;8460039;28;20044;-75
2022/03/22 16:21:31;;;;;;;25.60;13.98;;;;;;;16.69;23.37;101045.59;8453338;28;20050;-75
2022/03/22 16:25:32;;;;;;;32.67;14.95;;;;;;;16.52;23.90;101048.06;8457825;28;20040;-75
2022/03/22 16:29:33;;;;;;;40.67;17.77;;;;;;;16.27;24.51;101047.44;8461018;28;20047;-75
2022/03/22 16:37:56;;;;;;;49.50;22.33;;;;;;;15.71;25.52;101043.97;8462294;28;20091;-75
2022/03/22 16:41:58;;;;;;;44.40;21.80;;;;;;;15.41;26.04;101035.13;8461326;28;21698;-75
2022/03/22 16:45:59;;;;;;;42.95;19.90;;;;;;;15.10;26.45;101040.19;8441810;28;20060;-75
2022/03/22 16:50:04;;;;;;;40.78;18.17;;;;;;;14.84;27.08;101029.91;8461053;28;20153;-75
2022/03/22 16:54:05;;;;;;;34.83;16.88;;;;;;;14.48;27.30;101033.03;8459620;28;20526;-75
2022/03/22 16:58:07;;;;;;;35.58;16.27;;;;;;;14.27;28.17;101026.16;8460297;28;20055;-75
2022/03/22 17:02:09;;;;;;;30.92;17.13;;;;;;;13.94;29.38;101039.47;8460675;28;20039;-74
2022/03/22 17:06:10;;;;;;;32.05;16.73;;;;;;;13.55;30.16;101038.66;8460746;28;20501;-75
2022/03/22 17:10:12;;;;;;;33.17;16.00;;;;;;;13.18;30.90;101041.84;8460765;28;20512;-73
2022/03/22 17:14:12;;;;;;;31.73;15.93;;;;;;;12.87;31.51;101041.16;8459110;28;20056;-73
2022/03/22 17:18:14;;;;;;;33.10;16.08;;;;;;;12.60;31.48;101037.97;8460165;28;20108;-74
2022/03/22 17:22:17;;;;;;;35.50;16.42;;;;;;;12.27;32.31;101031.25;8460862;28;20051;-74
2022/03/22 17:26:18;;;;;;;33.95;17.23;;;;;;;11.86;32.91;101041.31;8461188;28;20052;-75
2022/03/22 17:30:19;;;;;;;42.53;16.30;;;;;;;11.58;33.58;101039.09;8459349;28;20054;-74
2022/03/22 17:34:20;;;;;;;36.33;17.00;;;;;;;11.32;34.09;101038.19;8458708;28;20472;-75
2022/03/22 17:38:21;;;;;;;40.00;16.98;;;;;;;11.09;34.63;101041.38;8459564;28;20047;-75
2022/03/22 17:42:23;;;;;;;46.20;16.80;;;;;;;10.82;35.19;101036.13;8440123;28;20044;-75
2022/03/22 17:46:26;;;;;;;61.92;17.42;;;;;;;10.53;35.54;101039.22;8459197;28;20425;-75
2022/03/22 17:50:27;;;;;;;61.88;18.23;;;;;;;10.30;35.66;101034.22;8457725;28;20052;-75
2022/03/22 17:54:28;;;;;;;57.08;18.35;;;;;;;10.11;35.81;101030.25;8436416;28;20055;-75
2022/03/22 17:58:29;;;;;;;44.53;17.60;;;;;;;9.93;36.51;101033.38;8439987;28;20131;-75
2022/03/22 18:02:34;;;;;;;44.90;19.15;;;;;;;9.75;37.12;101027.28;8456723;28;20040;-75
2022/03/22 18:06:35;;;;;;;73.88;33.60;;;;;;;9.68;37.07;101031.25;8454708;28;20110;-75
2022/03/22 18:10:36;;;;;;;130.00;58.35;;;;;;;9.60;36.52;101035.25;8464879;28;20043;-75
2022/03/22 18:14:38;;;;;;;105.97;47.78;;;;;;;9.56;36.61;101034.13;8462702;28;20134;-75
2022/03/22 18:18:39;;;;;;;84.38;37.15;;;;;;;9.49;36.62;101028.13;8451755;28;20050;-75
2022/03/22 18:22:41;;;;;;;58.35;25.80;;;;;;;9.40;36.27;101029.66;8465302;28;20164;-74
2022/03/22 18:26:44;;;;;;;51.08;22.98;;;;;;;9.36;36.19;101028.50;8465208;28;20425;-75
2022/03/22 18:30:45;;;;;;;57.55;21.65;;;;;;;9.32;36.13;101032.78;8464869;28;20055;-75
2022/03/22 18:34:46;;;;;;;51.30;23.08;;;;;;;9.30;35.55;101034.94;8456135;28;20508;-75
2022/03/22 18:38:48;;;;;;;50.80;21.98;;;;;;;9.30;35.50;101024.16;8416518;28;20147;-75
2022/03/22 18:42:50;;;;;;;46.78;21.35;;;;;;;9.21;35.85;101031.84;8464729;28;20074;-75
2022/03/22 18:46:51;;;;;;;47.63;22.20;;;;;;;9.13;36.12;101023.41;8423954;28;20082;-75
2022/03/22 18:50:54;;;;;;;44.08;21.60;;;;;;;9.04;36.32;101027.63;8463888;28;20040;-75
2022/03/22 18:54:57;;;;;;;46.53;21.20;;;;;;;8.86;36.72;101040.34;8445013;28;20047;-74
2022/03/22 18:58:58;;;;;;;45.97;22.40;;;;;;;8.79;36.32;101039.72;8464119;28;20079;-75
2022/03/22 19:03:03;;;;;;;45.35;21.17;;;;;;;8.70;36.19;101041.22;8396002;28;20054;-75
2022/03/22 19:07:04;;;;;;;41.05;20.92;;;;;;;8.66;36.16;101040.09;8430328;28;20421;-74
2022/03/22 19:11:07;;;;;;;41.15;21.30;;;;;;;8.64;36.57;101036.81;8430542;28;20044;-75
2022/03/22 19:15:08;;;;;;;38.85;19.92;;;;;;;8.52;36.92;101033.41;8430583;28;20040;-74